Bellevue, IA

8:12 PM CST on November 21, 2014 (GMT -0600)
HADS MISSISSIPPI RIVER AT LOCK & DAM IA US USARMY-COE | Change Station
CLOSE
Current Station
Personal Weather Station
Location: Bellevue, IA
Elevation: 580 ft
Nearby Weather Stations
Active Advisory: Freezing Rain Advisory Active Notice: Record Report

Elev 580 ft 42.26 °N, 90.42 °W | Updated 42 minutes ago

Overcast
Overcast
34.0 °F
Feels Like 28 °F
N
7.0
Wind Variable Wind from SSE
Gusts 10.0 mph

Today
High -- | Low -- °F
--% Chance of Precip.
Yesterday
High -- | Low -- °F
Precip. -- in
6:59 AM 4:35 PM
Waning Crescent, 0% visible
Pressure 30.19 in
Visibility 10.0 miles
Clouds Overcast 1800 ft
Windchill 28 °F
Dew Point Not available.
Humidity Not available.
Rainfall 0.00 in
Snow Depth Not available.
UV 0 out of 12
Pollen .10 out of 12
Air Quality Not available.
Flu Activity Not available.
METAR KDBQ 220153Z AUTO 18012KT 10SM OVC018 M01/M10 A3013 RMK AO2 SLP221 T10111100

More Conditions Fewer Conditions

Pressure 30.19 in
Visibility 10.0 miles
Clouds Overcast 1800 ft
Windchill 28 °F
Dew Point Not available.
Humidity Not available.
Rainfall 0.00 in
Snow Depth Not available.
UV 0 out of 12
Pollen .10 out of 12
Air Quality Not available.
Flu Activity Not available.
METAR KDBQ 220153Z AUTO 18012KT 10SM OVC018 M01/M10 A3013 RMK AO2 SLP221 T10111100

More Conditions Fewer Conditions

10-Day Weather Forecast

Almanac

Astronomy

Nov. 21, 2014 Rise Set
Actual Time
Civil Twilight
Nautical Twilight
Astronomical Twilight
Moon
Length of Visible Light
Length of Day
Tomorrow will be .
, % of the Moon is Illuminated

Today's Extremes

State Highs State Lows

Community

WunderPhotos

Upload Photos

1,772,759 photos uploaded!

WunderBlogs® & News

Nearby

Air Quality

  Air Quality AQ Index Pollutant
Not available.

Snow Depth

Station Depth Elevation

Earthquake Activity

City Distance Mag. Time & Date
Minimum magnitude displayed is 2.5.

Coastal Water Temperatures

Place Temperature

Nearby Weather Stations